Time;durP1;ratioP1;P1;durP2;ratioP2;P2;SDS_P1;SDS_P2;PMS_P1;PMS_P2;Temp;Humidity;BMP_temperature;BMP_pressure;BME280_temperature;BME280_humidity;BME280_pressure;Samples;Min_cycle;Max_cycle;Signal;HPM_P1;HPM_P2
2024/04/12 00:02:09;;;;;;;6.55;4.10;;;15.80;81.40;;;;;;10845917;26;20245;-62
2024/04/12 00:07:18;;;;;;;7.40;3.80;;;15.80;81.30;;;;;;10847760;26;20357;-62
2024/04/12 00:12:27;;;;;;;6.25;3.70;;;15.80;81.00;;;;;;10844383;26;22054;-63
2024/04/12 00:17:35;;;;;;;5.43;4.07;;;15.80;81.30;;;;;;10848593;26;20255;-62
2024/04/12 00:22:43;;;;;;;6.32;4.20;;;15.80;81.30;;;;;;10841328;26;20353;-63
2024/04/12 00:27:53;;;;;;;7.45;3.92;;;15.80;81.10;;;;;;10843182;26;20271;-64
2024/04/12 00:33:00;;;;;;;7.50;3.78;;;15.80;81.50;;;;;;10843036;26;20246;-62
2024/04/12 00:38:09;;;;;;;7.53;4.03;;;15.70;82.00;;;;;;10846321;26;20248;-65
2024/04/12 00:43:27;;;;;;;7.28;4.32;;;15.70;81.70;;;;;;10836352;21;20271;-62
2024/04/12 00:48:32;;;;;;;6.00;4.35;;;15.70;81.90;;;;;;10820099;26;20312;-64
2024/04/12 00:53:40;;;;;;;6.22;4.03;;;15.70;82.00;;;;;;10785402;26;20356;-64
2024/04/12 00:58:49;;;;;;;7.47;4.05;;;15.60;82.10;;;;;;10782546;27;20249;-62
2024/04/12 01:03:56;;;;;;;6.20;4.07;;;15.60;82.10;;;;;;10783495;27;20625;-64
2024/04/12 01:09:10;;;;;;;5.20;4.05;;;15.60;82.10;;;;;;10782700;27;20249;-63
2024/04/12 01:14:19;;;;;;;6.90;4.15;;;15.60;82.40;;;;;;10779471;27;20250;-64
2024/04/12 01:19:27;;;;;;;5.28;3.70;;;15.70;82.60;;;;;;10781734;27;20399;-63
2024/04/12 01:24:33;;;;;;;6.30;3.92;;;15.60;82.20;;;;;;10784312;27;20277;-64
2024/04/12 01:29:41;;;;;;;7.07;4.43;;;15.60;82.50;;;;;;10783061;27;20253;-64
2024/04/12 01:34:50;;;;;;;5.07;3.53;;;15.60;82.70;;;;;;10781795;27;20332;-64
2024/04/12 01:40:01;;;;;;;5.43;3.45;;;15.60;82.60;;;;;;10778576;27;22224;-64
2024/04/12 01:45:18;;;;;;;7.15;4.10;;;15.60;82.70;;;;;;10781133;27;22535;-64
2024/04/12 01:50:24;;;;;;;4.93;3.60;;;15.60;83.00;;;;;;10780284;27;20253;-64
2024/04/12 01:55:32;;;;;;;5.68;4.00;;;15.60;83.10;;;;;;10782196;27;20246;-64
2024/04/12 02:00:40;;;;;;;5.93;3.75;;;15.60;83.40;;;;;;10778929;27;20249;-64
2024/04/12 02:05:49;;;;;;;4.90;3.72;;;15.60;83.20;;;;;;10780300;27;20257;-64
2024/04/12 02:10:55;;;;;;;6.70;3.72;;;15.60;83.60;;;;;;10780278;27;20332;-64
2024/04/12 02:16:04;;;;;;;5.82;3.90;;;15.60;83.30;;;;;;10780430;27;20253;-64
2024/04/12 02:21:10;;;;;;;4.72;3.20;;;15.60;84.40;;;;;;10781576;27;20328;-63
2024/04/12 02:26:16;;;;;;;5.70;3.42;;;15.50;83.30;;;;;;10783974;27;21089;-65
2024/04/12 02:31:24;;;;;;;4.35;3.75;;;15.50;83.70;;;;;;10780613;27;20253;-64
2024/04/12 02:36:31;;;;;;;3.95;3.55;;;15.50;83.70;;;;;;10782887;27;21082;-64
2024/04/12 02:41:37;;;;;;;7.10;3.30;;;15.50;83.90;;;;;;10782257;27;20261;-65
2024/04/12 02:46:47;;;;;;;4.35;3.03;;;15.50;83.90;;;;;;10781926;27;20249;-64
2024/04/12 02:51:53;;;;;;;4.60;2.90;;;15.50;83.70;;;;;;10778926;27;20853;-65
2024/04/12 02:56:58;;;;;;;4.03;3.08;;;15.50;84.60;;;;;;10775747;27;20313;-64
2024/04/12 03:02:07;;;;;;;5.28;3.10;;;15.50;84.40;;;;;;10781399;27;20352;-64
2024/04/12 03:07:15;;;;;;;3.65;2.58;;;15.50;84.30;;;;;;10779043;27;20245;-64
2024/04/12 03:12:21;;;;;;;5.43;2.85;;;15.50;84.90;;;;;;10782598;27;20256;-64
2024/04/12 03:17:29;;;;;;;4.07;2.95;;;15.50;84.20;;;;;;10782175;27;20323;-64
2024/04/12 03:22:35;;;;;;;3.33;2.60;;;15.50;84.60;;;;;;10782370;27;20260;-64
2024/04/12 03:27:42;;;;;;;8.27;3.88;;;15.50;84.40;;;;;;10776638;27;20257;-64
2024/04/12 03:32:50;;;;;;;7.55;5.20;;;15.50;84.80;;;;;;10781383;27;20367;-64
2024/04/12 03:43:13;;;;;;;7.97;5.72;;;15.50;85.00;;;;;;10779796;27;20248;-62
2024/04/12 03:48:24;;;;;;;7.95;6.03;;;15.40;86.60;;;;;;10780703;27;20319;-62
2024/04/12 03:53:30;;;;;;;7.00;6.30;;;15.40;86.60;;;;;;10784506;27;20359;-61
2024/04/12 03:58:36;;;;;;;9.43;7.13;;;15.40;87.20;;;;;;10775710;27;20882;-62
2024/04/12 04:03:49;;;;;;;6.60;5.90;;;15.40;87.60;;;;;;10775536;27;20866;-62
2024/04/12 04:08:54;;;;;;;8.43;7.10;;;15.40;86.60;;;;;;10773145;27;20253;-62
2024/04/12 04:14:08;;;;;;;8.18;6.72;;;15.30;87.70;;;;;;10826843;27;20260;-60
2024/04/12 04:19:17;;;;;;;8.82;6.53;;;15.30;87.30;;;;;;10906689;27;20389;-60
2024/04/12 04:24:24;;;;;;;8.13;6.93;;;15.40;87.20;;;;;;10915834;27;20258;-61
2024/04/12 04:29:29;;;;;;;9.32;6.72;;;15.30;87.30;;;;;;10911995;27;20628;-60
2024/04/12 04:34:37;;;;;;;10.00;7.50;;;15.40;87.10;;;;;;10913844;27;20284;-61
2024/04/12 04:39:43;;;;;;;10.02;6.70;;;15.40;87.80;;;;;;10915032;27;20640;-60
2024/04/12 04:44:48;;;;;;;9.45;6.47;;;15.40;87.60;;;;;;10914589;27;20241;-62
2024/04/12 04:49:56;;;;;;;8.85;6.35;;;15.40;89.00;;;;;;10915604;27;20262;-61
2024/04/12 04:55:02;;;;;;;8.60;5.88;;;15.30;88.90;;;;;;10910654;27;20355;-59
2024/04/12 05:00:09;;;;;;;7.00;5.70;;;15.30;88.90;;;;;;10923402;27;20242;-61
2024/04/12 05:05:22;;;;;;;8.30;5.47;;;15.30;88.70;;;;;;10915493;27;20309;-63
2024/04/12 05:10:33;;;;;;;5.55;4.50;;;15.20;89.30;;;;;;10915727;27;20328;-63
2024/04/12 05:15:52;;;;;;;6.88;4.70;;;15.20;89.20;;;;;;10914230;27;20234;-62
2024/04/12 05:21:03;;;;;;;5.75;4.40;;;15.20;90.00;;;;;;10917296;27;20857;-61
2024/04/12 05:26:09;;;;;;;7.20;4.65;;;15.20;90.10;;;;;;10923181;27;20261;-61
2024/04/12 05:31:14;;;;;;;5.10;4.60;;;15.20;90.30;;;;;;10912687;27;20369;-62
2024/04/12 05:36:22;;;;;;;5.78;4.45;;;15.20;90.20;;;;;;10914565;27;20302;-61
2024/04/12 05:41:32;;;;;;;6.57;5.15;;;15.20;89.90;;;;;;10915488;27;20333;-61
2024/04/12 05:46:39;;;;;;;5.15;4.28;;;15.20;90.30;;;;;;10913842;27;20341;-62
2024/04/12 05:51:49;;;;;;;6.57;5.88;;;15.20;90.20;;;;;;10928476;27;20344;-62
2024/04/12 05:56:55;;;;;;;7.90;6.22;;;15.20;90.60;;;;;;10915779;27;20285;-62
2024/04/12 06:02:01;;;;;;;9.32;7.32;;;15.20;90.50;;;;;;10918429;27;20796;-61
2024/04/12 06:07:11;;;;;;;7.82;6.90;;;15.20;90.20;;;;;;10911029;27;20302;-62
2024/04/12 06:12:17;;;;;;;9.02;6.97;;;15.30;90.80;;;;;;10918231;27;20361;-62
2024/04/12 06:17:23;;;;;;;8.77;6.90;;;15.30;90.90;;;;;;10914591;27;20332;-61
2024/04/12 06:22:34;;;;;;;8.70;7.03;;;15.30;91.00;;;;;;10917883;27;20364;-61
2024/04/12 06:27:39;;;;;;;9.77;6.38;;;15.30;90.90;;;;;;10916970;27;20310;-62
2024/04/12 06:32:44;;;;;;;7.15;6.05;;;15.20;91.00;;;;;;10915580;27;20325;-62
2024/04/12 06:37:54;;;;;;;8.93;6.57;;;15.30;90.80;;;;;;10917852;27;20294;-61
2024/04/12 06:43:05;;;;;;;6.57;5.53;;;15.30;91.10;;;;;;11023063;21;20367;-69
2024/04/12 06:48:16;;;;;;;7.03;6.10;;;15.30;91.00;;;;;;11059265;26;20523;-67
2024/04/12 06:53:25;;;;;;;7.90;6.07;;;15.30;91.30;;;;;;11020894;26;20254;-67
2024/04/12 06:58:30;;;;;;;8.82;6.43;;;15.30;91.00;;;;;;11014088;26;20246;-69
2024/04/12 07:03:36;;;;;;;7.35;6.05;;;15.40;91.70;;;;;;11010909;26;20250;-69
2024/04/12 07:08:49;;;;;;;6.32;5.72;;;15.40;91.70;;;;;;11003568;26;22111;-67
2024/04/12 07:13:56;;;;;;;6.78;5.43;;;15.40;91.50;;;;;;11003097;26;20363;-67
2024/04/12 07:19:05;;;;;;;9.57;4.90;;;15.40;91.30;;;;;;11000288;26;20254;-67
2024/04/12 07:24:15;;;;;;;7.65;4.32;;;15.50;91.10;;;;;;10944754;26;20245;-67
2024/04/12 07:29:21;;;;;;;7.13;4.68;;;15.60;91.30;;;;;;11008272;26;21214;-70
2024/04/12 07:34:30;;;;;;;6.05;3.65;;;15.60;91.20;;;;;;11003091;26;20250;-69
2024/04/12 07:39:40;;;;;;;8.50;4.28;;;15.70;91.10;;;;;;11007415;26;20320;-70
2024/04/12 07:44:46;;;;;;;6.63;4.22;;;15.70;91.20;;;;;;10933861;26;20348;-71
2024/04/12 07:49:54;;;;;;;7.72;4.38;;;15.80;91.20;;;;;;10929523;26;20582;-69
2024/04/12 07:55:02;;;;;;;8.10;4.57;;;15.90;91.10;;;;;;10938791;26;20412;-70
2024/04/12 08:00:09;;;;;;;6.88;5.35;;;16.00;91.10;;;;;;10939784;26;20341;-68
2024/04/12 08:05:17;;;;;;;5.78;4.75;;;16.20;91.40;;;;;;10949366;26;20251;-66
2024/04/12 08:10:29;;;;;;;5.38;4.05;;;16.20;91.50;;;;;;10953902;26;20678;-69
2024/04/12 08:15:40;;;;;;;8.02;4.90;;;16.30;91.50;;;;;;10954985;26;20845;-67
2024/04/12 08:20:46;;;;;;;7.18;4.80;;;16.30;91.60;;;;;;10942415;26;20721;-67
2024/04/12 08:25:58;;;;;;;6.30;4.35;;;16.30;91.60;;;;;;10937891;26;20332;-70
2024/04/12 08:31:05;;;;;;;5.53;4.85;;;16.40;91.50;;;;;;10936403;26;20738;-69
2024/04/12 08:36:14;;;;;;;4.78;3.95;;;16.40;91.40;;;;;;10937303;26;20247;-69
2024/04/12 08:41:24;;;;;;;6.78;4.30;;;16.50;91.60;;;;;;10985336;26;20241;-68
2024/04/12 08:46:33;;;;;;;7.72;4.53;;;16.60;91.40;;;;;;11080502;26;20307;-68
2024/04/12 08:51:39;;;;;;;4.57;4.00;;;16.70;91.50;;;;;;11080110;26;20826;-68
2024/04/12 08:56:52;;;;;;;6.78;4.97;;;16.80;91.30;;;;;;11077663;26;20593;-67
2024/04/12 09:01:59;;;;;;;6.40;4.50;;;16.90;91.40;;;;;;11083713;26;20232;-68
2024/04/12 09:07:04;;;;;;;9.30;5.03;;;17.10;91.30;;;;;;11024985;26;20233;-67
2024/04/12 09:12:15;;;;;;;5.80;5.10;;;17.20;91.10;;;;;;11093093;26;20245;-67
2024/04/12 09:17:26;;;;;;;7.68;5.00;;;17.30;91.10;;;;;;11093175;26;20232;-67
2024/04/12 09:22:32;;;;;;;7.00;5.13;;;17.40;91.20;;;;;;11092100;26;23304;-67
2024/04/12 09:27:44;;;;;;;7.63;4.75;;;17.40;91.10;;;;;;11098546;26;20593;-69
2024/04/12 09:33:16;;;;;;;7.63;5.30;;;17.40;91.10;;;;;;11099139;26;20349;-69
2024/04/12 09:38:27;;;;;;;7.40;5.03;;;17.50;91.50;;;;;;11097553;26;22236;-67
2024/04/12 09:43:36;;;;;;;9.68;4.80;;;17.50;91.10;;;;;;11099698;26;20241;-68
2024/04/12 10:37:28;;;;;;;9.25;5.40;;;18.00;90.90;;;;;;11085331;26;20566;-66
2024/04/12 10:42:35;;;;;;;7.85;5.50;;;18.00;90.80;;;;;;11083623;26;20357;-68
2024/04/12 10:47:44;;;;;;;7.13;5.93;;;18.00;90.80;;;;;;11087840;26;20735;-67
2024/04/12 10:52:51;;;;;;;6.55;5.95;;;18.10;90.80;;;;;;11088317;26;20319;-68
2024/04/12 10:57:56;;;;;;;11.43;6.20;;;18.30;90.80;;;;;;11087334;26;20322;-68
2024/04/12 11:03:17;;;;;;;6.75;5.75;;;18.40;90.60;;;;;;11088030;26;20248;-68
2024/04/12 11:08:28;;;;;;;7.60;5.65;;;18.50;90.50;;;;;;11087477;26;20237;-68
2024/04/12 11:13:35;;;;;;;9.55;6.20;;;18.70;90.50;;;;;;11081713;26;20237;-68
2024/04/12 11:34:51;;;;;;;8.88;5.97;;;18.90;90.30;;;;;;11068284;26;20342;-67
2024/04/12 11:39:57;;;;;;;7.03;4.97;;;18.90;90.20;;;;;;11065824;26;20233;-69
2024/04/12 11:45:03;;;;;;;7.63;4.70;;;19.10;90.30;;;;;;11071202;26;20233;-68
2024/04/12 11:50:11;;;;;;;6.13;4.53;;;19.20;90.20;;;;;;11070556;26;21598;-68
2024/04/12 11:55:21;;;;;;;9.05;4.35;;;19.50;90.00;;;;;;11068836;26;20233;-67
2024/04/12 12:00:27;;;;;;;6.10;4.03;;;19.60;89.60;;;;;;11069128;26;20245;-67
2024/04/12 12:05:37;;;;;;;6.90;3.88;;;19.80;89.30;;;;;;11070813;26;20341;-68
2024/04/12 12:10:45;;;;;;;6.43;4.53;;;20.00;88.70;;;;;;11071402;26;20313;-67
2024/04/12 12:15:51;;;;;;;6.30;3.78;;;20.10;88.60;;;;;;11071282;26;20344;-68
2024/04/12 12:20:59;;;;;;;6.45;3.72;;;20.30;88.80;;;;;;11072583;26;20241;-68
2024/04/12 12:26:08;;;;;;;7.38;3.40;;;20.20;87.50;;;;;;11069760;26;20323;-68
2024/04/12 12:31:17;;;;;;;4.63;3.30;;;20.10;87.70;;;;;;11070512;26;20241;-66
2024/04/12 12:36:27;;;;;;;6.03;3.83;;;20.00;88.60;;;;;;11070818;26;20240;-68
2024/04/12 12:41:35;;;;;;;6.63;3.92;;;19.80;87.80;;;;;;11080940;26;20322;-69
2024/04/12 12:46:41;;;;;;;4.15;3.30;;;19.70;87.40;;;;;;11094468;26;20236;-67
2024/04/12 12:51:50;;;;;;;5.82;4.18;;;19.60;86.40;;;;;;11093773;26;20348;-67
2024/04/12 12:56:57;;;;;;;4.15;3.60;;;19.70;86.80;;;;;;11090496;26;20307;-69
2024/04/12 13:02:03;;;;;;;6.50;3.67;;;20.20;86.30;;;;;;11090833;26;20823;-68
2024/04/12 13:07:13;;;;;;;4.78;3.55;;;20.30;85.20;;;;;;11090884;26;20299;-69
2024/04/12 13:12:18;;;;;;;7.15;3.55;;;20.30;84.50;;;;;;11094002;26;20245;-68
2024/04/12 13:17:24;;;;;;;4.95;3.30;;;20.30;84.90;;;;;;11095875;26;20224;-68
2024/04/12 13:22:32;;;;;;;4.88;3.10;;;20.40;84.90;;;;;;11088922;26;20315;-67
2024/04/12 13:27:37;;;;;;;4.30;3.28;;;20.40;84.80;;;;;;11089700;26;20724;-70
2024/04/12 13:32:43;;;;;;;4.15;3.03;;;20.40;84.60;;;;;;11090897;26;21023;-68
2024/04/12 13:37:52;;;;;;;3.92;2.90;;;20.20;84.20;;;;;;11085164;26;20322;-68
2024/04/12 13:42:59;;;;;;;5.55;3.05;;;20.10;84.70;;;;;;11087863;26;20769;-68
2024/04/12 13:53:36;;;;;;;6.75;3.30;;;20.50;84.70;;;;;;11098897;26;22410;-65
2024/04/12 13:58:42;;;;;;;5.88;3.15;;;20.50;83.70;;;;;;11093454;26;20244;-68
2024/04/12 14:03:47;;;;;;;4.80;3.15;;;20.50;83.60;;;;;;11097021;26;20315;-71
2024/04/12 14:09:00;;;;;;;6.50;2.85;;;20.60;83.50;;;;;;11093875;26;21445;-67
2024/04/12 14:14:05;;;;;;;4.85;2.78;;;20.70;83.80;;;;;;11089783;26;20341;-69
2024/04/12 14:19:17;;;;;;;4.80;3.40;;;20.70;84.20;;;;;;11095767;26;20245;-68
2024/04/12 14:29:49;;;;;;;3.40;2.60;;;20.90;83.80;;;;;;11089160;26;20228;-67
2024/04/12 14:34:58;;;;;;;6.28;3.05;;;21.20;82.90;;;;;;11089455;26;20294;-67
2024/04/12 14:40:21;;;;;;;6.45;2.97;;;21.20;82.40;;;;;;11089555;26;20241;-69
2024/04/12 14:45:27;;;;;;;4.82;3.03;;;20.90;81.80;;;;;;10998560;26;20325;-68
2024/04/12 14:50:33;;;;;;;6.22;3.50;;;21.40;82.80;;;;;;11091268;26;20249;-67
2024/04/12 14:55:46;;;;;;;7.15;3.70;;;21.90;82.00;;;;;;11089931;26;20299;-68
2024/04/12 15:00:52;;;;;;;6.03;3.88;;;22.40;80.50;;;;;;11092482;26;20245;-68
2024/04/12 15:48:57;;;;;;;3.63;2.78;;;21.60;78.50;;;;;;11090133;26;20876;-69
2024/04/12 15:54:02;;;;;;;6.13;2.67;;;21.70;78.90;;;;;;11089545;26;20298;-70
2024/04/12 16:15:32;;;;;;;5.72;3.33;;;21.90;78.60;;;;;;10827259;26;20348;-67
2024/04/12 16:20:38;;;;;;;5.82;3.33;;;21.80;77.40;;;;;;11038078;26;20372;-68
2024/04/12 16:25:43;;;;;;;5.75;3.70;;;21.70;78.40;;;;;;11095802;26;20232;-68
2024/04/12 16:31:08;;;;;;;5.43;3.72;;;21.50;78.10;;;;;;11093992;26;20341;-67
2024/04/12 16:36:13;;;;;;;9.52;4.25;;;21.40;78.30;;;;;;11093680;26;20228;-67
2024/04/12 16:41:19;;;;;;;6.40;3.67;;;21.30;78.70;;;;;;11090380;26;20248;-67
2024/04/12 16:46:27;;;;;;;5.53;3.30;;;21.20;78.80;;;;;;11088185;26;20331;-66
2024/04/12 16:51:33;;;;;;;5.90;3.45;;;21.10;78.60;;;;;;11094749;26;21843;-67
2024/04/12 16:56:38;;;;;;;7.38;3.55;;;20.90;78.60;;;;;;11004219;26;20237;-67
2024/04/12 17:01:46;;;;;;;4.82;2.92;;;20.90;79.00;;;;;;11091971;26;20347;-67
2024/04/12 17:06:52;;;;;;;7.47;3.60;;;20.70;78.90;;;;;;11095258;26;20232;-67
2024/04/12 17:11:57;;;;;;;5.80;2.78;;;20.70;79.30;;;;;;11096038;26;20245;-66
2024/04/12 17:17:06;;;;;;;8.25;3.72;;;20.60;79.30;;;;;;11097396;26;21736;-67
2024/04/12 17:22:11;;;;;;;9.02;3.58;;;20.50;79.20;;;;;;11095113;26;20245;-66
2024/04/12 17:27:16;;;;;;;4.85;3.00;;;20.50;79.70;;;;;;11093708;26;22345;-66
2024/04/12 17:32:35;;;;;;;7.70;3.70;;;20.40;79.70;;;;;;11095986;26;20330;-67
2024/04/12 17:37:40;;;;;;;6.38;3.50;;;20.40;80.10;;;;;;11093440;26;20296;-67
2024/04/12 17:42:46;;;;;;;4.57;3.10;;;20.30;80.20;;;;;;11096211;26;20433;-68
2024/04/12 17:47:54;;;;;;;8.45;4.07;;;20.30;80.40;;;;;;11093113;26;20288;-66
2024/04/12 17:53:01;;;;;;;8.75;5.03;;;20.20;80.40;;;;;;11095564;26;22366;-68
2024/04/12 17:58:08;;;;;;;5.18;3.75;;;20.10;80.50;;;;;;11092464;26;20227;-67
2024/04/12 18:03:16;;;;;;;6.90;3.83;;;20.10;80.70;;;;;;11088065;26;20249;-68
2024/04/12 18:08:24;;;;;;;9.32;4.40;;;20.00;80.80;;;;;;11084876;26;20233;-67
2024/04/12 18:13:29;;;;;;;5.68;4.00;;;19.90;80.90;;;;;;11094584;26;20237;-65
2024/04/12 18:18:37;;;;;;;7.13;3.80;;;19.90;81.10;;;;;;11093338;26;20232;-67
2024/04/12 18:23:44;;;;;;;5.15;3.78;;;19.80;81.30;;;;;;11092549;26;20244;-67
2024/04/12 18:28:52;;;;;;;8.32;3.83;;;19.70;81.30;;;;;;11094610;26;20317;-66
2024/04/12 18:34:00;;;;;;;6.43;3.83;;;19.70;81.60;;;;;;11093045;26;21499;-66
2024/04/12 18:49:51;;;;;;;7.63;4.35;;;19.50;81.80;;;;;;11226123;26;20604;-63
2024/04/12 18:54:56;;;;;;;11.30;4.63;;;19.50;82.00;;;;;;11238160;26;20236;-64
2024/04/12 19:00:04;;;;;;;8.18;3.92;;;19.40;81.90;;;;;;11232533;26;20228;-63
2024/04/12 19:05:14;;;;;;;7.15;4.05;;;19.40;82.20;;;;;;11232903;26;20324;-64
2024/04/12 19:10:19;;;;;;;8.55;4.25;;;19.30;82.30;;;;;;11231721;26;20237;-64
2024/04/12 19:15:26;;;;;;;6.50;4.00;;;19.30;82.80;;;;;;11229239;26;20230;-63
2024/04/12 19:20:40;;;;;;;6.70;4.15;;;19.20;82.90;;;;;;11230647;26;20272;-65
2024/04/12 19:25:53;;;;;;;7.38;3.70;;;19.20;83.00;;;;;;11236634;26;20301;-66
2024/04/12 19:31:03;;;;;;;7.30;4.22;;;19.10;83.20;;;;;;11225631;26;20337;-65
2024/04/12 19:36:14;;;;;;;6.32;4.22;;;19.10;83.00;;;;;;11224015;26;20224;-63
2024/04/12 19:41:19;;;;;;;8.20;4.45;;;19.00;83.00;;;;;;11227454;26;20586;-64
2024/04/12 19:46:25;;;;;;;9.60;4.68;;;19.00;83.00;;;;;;11222224;26;20224;-64
2024/04/12 19:51:34;;;;;;;9.32;4.43;;;18.90;83.50;;;;;;11205662;26;20648;-64
2024/04/12 19:56:39;;;;;;;8.52;4.88;;;18.90;83.50;;;;;;11161182;26;20333;-64
2024/04/12 20:01:45;;;;;;;6.95;4.30;;;18.80;83.50;;;;;;11202031;26;20243;-63
2024/04/12 20:06:53;;;;;;;8.75;4.20;;;18.80;83.30;;;;;;11145595;26;20317;-64
2024/04/12 20:11:59;;;;;;;7.63;4.55;;;18.80;83.40;;;;;;11176641;26;20344;-62
2024/04/12 20:17:04;;;;;;;9.55;4.97;;;18.70;83.40;;;;;;11136565;26;20240;-62
2024/04/12 20:22:13;;;;;;;7.03;4.50;;;18.70;83.90;;;;;;11147525;26;20873;-63
2024/04/12 20:27:19;;;;;;;5.28;4.13;;;18.70;83.70;;;;;;11141159;26;20349;-63
2024/04/12 20:32:25;;;;;;;8.98;4.80;;;18.70;83.80;;;;;;11135702;26;20240;-63
2024/04/12 20:37:33;;;;;;;10.27;4.63;;;18.60;83.60;;;;;;11096148;26;20232;-62
2024/04/12 20:42:38;;;;;;;9.32;4.93;;;18.60;84.10;;;;;;11002626;26;21818;-64
2024/04/12 20:47:44;;;;;;;8.68;5.15;;;18.60;83.80;;;;;;11091492;26;20230;-62
2024/04/12 20:52:52;;;;;;;8.18;4.65;;;18.60;84.20;;;;;;11091485;26;22833;-64
2024/04/12 20:57:57;;;;;;;9.20;4.75;;;18.60;84.10;;;;;;11091052;26;22905;-62
2024/04/12 21:03:03;;;;;;;10.45;4.72;;;18.60;84.10;;;;;;11090146;26;22290;-63
2024/04/12 21:08:11;;;;;;;9.75;4.40;;;18.50;84.50;;;;;;11089825;26;20238;-62
2024/04/12 21:13:17;;;;;;;8.13;4.75;;;18.50;84.30;;;;;;11087233;26;21507;-61
2024/04/12 21:18:22;;;;;;;8.55;4.72;;;18.50;84.10;;;;;;11099355;26;20229;-60
2024/04/12 21:23:31;;;;;;;8.63;4.65;;;18.50;84.00;;;;;;11097219;26;20343;-60
2024/04/12 21:28:36;;;;;;;6.88;4.53;;;18.50;84.40;;;;;;11099234;26;20229;-61
2024/04/12 21:33:47;;;;;;;6.93;4.63;;;18.50;84.40;;;;;;11028891;26;20237;-62
2024/04/12 21:38:57;;;;;;;7.57;4.82;;;18.40;84.30;;;;;;11096351;26;20236;-62
2024/04/12 21:44:04;;;;;;;7.50;5.07;;;18.40;84.40;;;;;;11095230;26;20241;-62
2024/04/12 21:49:09;;;;;;;8.55;4.95;;;18.40;84.40;;;;;;11095030;26;20314;-62
2024/04/12 21:54:17;;;;;;;6.95;4.63;;;18.30;84.40;;;;;;11096178;26;21152;-61
2024/04/12 21:59:24;;;;;;;7.28;4.80;;;18.30;84.40;;;;;;11095911;26;21593;-62
2024/04/12 22:04:29;;;;;;;8.77;4.82;;;18.30;84.70;;;;;;11094635;26;20315;-61
2024/04/12 22:09:37;;;;;;;10.13;5.10;;;18.30;84.60;;;;;;11094426;26;22584;-61
2024/04/12 22:14:43;;;;;;;9.52;5.03;;;18.20;84.80;;;;;;11095785;26;20305;-61
2024/04/12 22:19:50;;;;;;;7.90;4.82;;;18.20;84.80;;;;;;11094831;26;20716;-60
2024/04/12 22:24:58;;;;;;;10.00;5.10;;;18.20;85.40;;;;;;11005054;26;20233;-63
2024/04/12 22:30:03;;;;;;;8.82;4.70;;;18.10;85.50;;;;;;11094070;26;20241;-61
2024/04/12 22:35:09;;;;;;;8.48;5.00;;;18.10;85.00;;;;;;11093947;26;20350;-61
2024/04/12 22:40:17;;;;;;;11.38;5.07;;;18.10;85.50;;;;;;11093588;26;20342;-62
2024/04/12 22:45:22;;;;;;;9.57;4.80;;;18.10;85.20;;;;;;11095000;26;20314;-62
2024/04/12 22:50:28;;;;;;;9.43;5.43;;;18.00;85.30;;;;;;11096685;26;21584;-63
2024/04/12 22:55:36;;;;;;;9.73;5.18;;;18.00;85.40;;;;;;11094215;26;20313;-62
2024/04/12 23:00:42;;;;;;;9.52;5.90;;;18.00;85.50;;;;;;11092580;26;20236;-63
2024/04/12 23:05:47;;;;;;;8.98;5.13;;;17.90;85.70;;;;;;11094958;26;20342;-62
2024/04/12 23:10:55;;;;;;;9.07;5.30;;;17.90;85.70;;;;;;11095869;26;20236;-62
2024/04/12 23:16:01;;;;;;;8.90;5.78;;;17.80;86.10;;;;;;11092369;26;20671;-62
2024/04/12 23:21:07;;;;;;;10.75;5.50;;;17.80;85.80;;;;;;11093578;26;20228;-62
2024/04/12 23:26:15;;;;;;;8.45;5.60;;;17.80;86.10;;;;;;11093129;26;20916;-63
2024/04/12 23:31:20;;;;;;;7.85;5.40;;;17.70;86.30;;;;;;11094665;26;20350;-61
2024/04/12 23:36:26;;;;;;;13.25;6.15;;;17.70;86.00;;;;;;11092194;26;20237;-62
2024/04/12 23:41:34;;;;;;;6.97;5.45;;;17.70;86.60;;;;;;11002335;26;20241;-62
2024/04/12 23:46:39;;;;;;;10.35;5.75;;;17.60;86.60;;;;;;11090759;26;20591;-62
2024/04/12 23:51:45;;;;;;;9.23;5.32;;;17.60;86.80;;;;;;11092992;26;20233;-62
2024/04/12 23:56:53;;;;;;;6.88;5.68;;;17.60;86.80;;;;;;11094233;26;20240;-62
